sensor_id;sensor_type;location;lat;lon;timestamp;temperature;humidity
2202;DHT22;1107;48.654;9.250;2022-12-01T00:00:36;4.40;1.00
2202;DHT22;1107;48.654;9.250;2022-12-01T00:03:11;4.40;1.00
2202;DHT22;1107;48.654;9.250;2022-12-01T00:05:38;4.40;1.00
2202;DHT22;1107;48.654;9.250;2022-12-01T00:08:06;4.40;1.00
2202;DHT22;1107;48.654;9.250;2022-12-01T00:10:33;4.40;99.90
2202;DHT22;1107;48.654;9.250;2022-12-01T00:13:00;4.40;99.90
2202;DHT22;1107;48.654;9.250;2022-12-01T00:15:28;4.30;99.90
2202;DHT22;1107;48.654;9.250;2022-12-01T00:17:56;4.30;1.00
2202;DHT22;1107;48.654;9.250;2022-12-01T00:20:23;4.30;99.90
2202;DHT22;1107;48.654;9.250;2022-12-01T00:22:50;4.20;1.00
2202;DHT22;1107;48.654;9.250;2022-12-01T00:25:19;4.30;1.00
2202;DHT22;1107;48.654;9.250;2022-12-01T00:27:46;4.40;1.00
2202;DHT22;1107;48.654;9.250;2022-12-01T00:30:14;4.30;99.90
2202;DHT22;1107;48.654;9.250;2022-12-01T00:32:41;4.40;99.90
2202;DHT22;1107;48.654;9.250;2022-12-01T00:35:08;4.40;99.90
2202;DHT22;1107;48.654;9.250;2022-12-01T00:37:35;4.40;99.90
2202;DHT22;1107;48.654;9.250;2022-12-01T00:40:03;4.40;99.90
2202;DHT22;1107;48.654;9.250;2022-12-01T00:42:36;4.40;99.90
2202;DHT22;1107;48.654;9.250;2022-12-01T00:45:03;4.40;1.00
2202;DHT22;1107;48.654;9.250;2022-12-01T00:47:30;4.40;1.00
2202;DHT22;1107;48.654;9.250;2022-12-01T00:49:57;4.30;99.90
2202;DHT22;1107;48.654;9.250;2022-12-01T00:52:24;4.30;1.00
2202;DHT22;1107;48.654;9.250;2022-12-01T00:54:51;4.40;20.50
2202;DHT22;1107;48.654;9.250;2022-12-01T00:57:18;4.40;46.40
2202;DHT22;1107;48.654;9.250;2022-12-01T00:59:47;4.40;99.90
2202;DHT22;1107;48.654;9.250;2022-12-01T01:02:13;4.40;99.90
2202;DHT22;1107;48.654;9.250;2022-12-01T01:04:40;4.30;99.90
2202;DHT22;1107;48.654;9.250;2022-12-01T01:07:07;4.30;99.90
2202;DHT22;1107;48.654;9.250;2022-12-01T01:09:34;4.30;99.90
2202;DHT22;1107;48.654;9.250;2022-12-01T01:12:01;4.30;99.90
2202;DHT22;1107;48.654;9.250;2022-12-01T01:14:28;4.30;99.90
2202;DHT22;1107;48.654;9.250;2022-12-01T01:16:57;4.30;99.90
2202;DHT22;1107;48.654;9.250;2022-12-01T01:19:24;4.20;99.90
2202;DHT22;1107;48.654;9.250;2022-12-01T01:22:03;4.20;99.90
2202;DHT22;1107;48.654;9.250;2022-12-01T01:24:30;4.20;99.90
2202;DHT22;1107;48.654;9.250;2022-12-01T01:26:57;4.30;99.90
2202;DHT22;1107;48.654;9.250;2022-12-01T01:29:24;4.30;99.90
2202;DHT22;1107;48.654;9.250;2022-12-01T01:31:51;4.30;99.90
2202;DHT22;1107;48.654;9.250;2022-12-01T01:34:20;4.30;99.90
2202;DHT22;1107;48.654;9.250;2022-12-01T01:36:47;4.30;1.00
2202;DHT22;1107;48.654;9.250;2022-12-01T01:39:14;4.30;1.00
2202;DHT22;1107;48.654;9.250;2022-12-01T01:41:41;4.20;1.00
2202;DHT22;1107;48.654;9.250;2022-12-01T01:46:53;4.30;1.00
2202;DHT22;1107;48.654;9.250;2022-12-01T01:49:22;4.20;1.00
2202;DHT22;1107;48.654;9.250;2022-12-01T01:51:49;4.20;1.00
2202;DHT22;1107;48.654;9.250;2022-12-01T01:54:17;4.20;1.40
2202;DHT22;1107;48.654;9.250;2022-12-01T01:56:45;4.20;1.00
2202;DHT22;1107;48.654;9.250;2022-12-01T01:59:14;4.20;1.00
2202;DHT22;1107;48.654;9.250;2022-12-01T02:01:42;4.20;1.00
2202;DHT22;1107;48.654;9.250;2022-12-01T02:04:09;4.20;1.00
2202;DHT22;1107;48.654;9.250;2022-12-01T02:06:38;4.20;1.40
2202;DHT22;1107;48.654;9.250;2022-12-01T02:09:05;4.20;1.00
2202;DHT22;1107;48.654;9.250;2022-12-01T02:11:39;4.30;66.20
2202;DHT22;1107;48.654;9.250;2022-12-01T02:14:17;4.30;1.00
2202;DHT22;1107;48.654;9.250;2022-12-01T02:17:21;4.20;1.00
2202;DHT22;1107;48.654;9.250;2022-12-01T02:19:51;4.20;1.30
2202;DHT22;1107;48.654;9.250;2022-12-01T02:22:24;4.10;99.90
2202;DHT22;1107;48.654;9.250;2022-12-01T02:27:45;4.10;99.90
2202;DHT22;1107;48.654;9.250;2022-12-01T02:30:28;4.10;99.90
2202;DHT22;1107;48.654;9.250;2022-12-01T02:32:59;4.10;99.90
2202;DHT22;1107;48.654;9.250;2022-12-01T02:35:28;4.20;99.90
2202;DHT22;1107;48.654;9.250;2022-12-01T02:38:03;4.20;99.90
2202;DHT22;1107;48.654;9.250;2022-12-01T02:40:35;4.20;1.00
2202;DHT22;1107;48.654;9.250;2022-12-01T02:43:05;4.10;1.00
2202;DHT22;1107;48.654;9.250;2022-12-01T02:45:38;4.10;1.00
2202;DHT22;1107;48.654;9.250;2022-12-01T02:48:07;4.10;1.00
2202;DHT22;1107;48.654;9.250;2022-12-01T02:50:37;4.20;1.00
2202;DHT22;1107;48.654;9.250;2022-12-01T02:53:06;4.20;1.00
2202;DHT22;1107;48.654;9.250;2022-12-01T02:55:34;4.20;1.00
2202;DHT22;1107;48.654;9.250;2022-12-01T02:58:01;4.20;1.00
2202;DHT22;1107;48.654;9.250;2022-12-01T03:00:39;4.20;1.00
2202;DHT22;1107;48.654;9.250;2022-12-01T03:03:14;4.10;1.00
2202;DHT22;1107;48.654;9.250;2022-12-01T03:05:47;4.10;1.00
2202;DHT22;1107;48.654;9.250;2022-12-01T03:08:19;4.00;77.20
2202;DHT22;1107;48.654;9.250;2022-12-01T03:10:49;4.00;1.00
2202;DHT22;1107;48.654;9.250;2022-12-01T03:13:18;4.00;99.90
2202;DHT22;1107;48.654;9.250;2022-12-01T03:15:50;3.90;1.00
2202;DHT22;1107;48.654;9.250;2022-12-01T03:18:25;3.90;1.00
2202;DHT22;1107;48.654;9.250;2022-12-01T03:20:55;4.00;1.00
2202;DHT22;1107;48.654;9.250;2022-12-01T03:23:24;4.00;1.00
2202;DHT22;1107;48.654;9.250;2022-12-01T03:25:53;3.90;99.90
2202;DHT22;1107;48.654;9.250;2022-12-01T03:28:21;3.90;1.00
2202;DHT22;1107;48.654;9.250;2022-12-01T03:30:56;3.90;99.90
2202;DHT22;1107;48.654;9.250;2022-12-01T03:33:26;4.00;99.90
2202;DHT22;1107;48.654;9.250;2022-12-01T03:35:57;4.00;1.00
2202;DHT22;1107;48.654;9.250;2022-12-01T03:38:26;4.00;99.90
2202;DHT22;1107;48.654;9.250;2022-12-01T03:40:54;3.90;1.00
2202;DHT22;1107;48.654;9.250;2022-12-01T03:43:24;3.90;99.90
2202;DHT22;1107;48.654;9.250;2022-12-01T03:45:53;3.90;99.90
2202;DHT22;1107;48.654;9.250;2022-12-01T03:48:23;3.90;99.90
2202;DHT22;1107;48.654;9.250;2022-12-01T03:50:52;3.90;29.70
2202;DHT22;1107;48.654;9.250;2022-12-01T03:53:22;3.90;99.90
2202;DHT22;1107;48.654;9.250;2022-12-01T03:55:51;3.80;1.00
2202;DHT22;1107;48.654;9.250;2022-12-01T03:58:22;3.80;1.00
2202;DHT22;1107;48.654;9.250;2022-12-01T04:00:51;3.80;1.00
2202;DHT22;1107;48.654;9.250;2022-12-01T04:03:23;3.70;1.00
2202;DHT22;1107;48.654;9.250;2022-12-01T04:05:51;3.70;1.00
2202;DHT22;1107;48.654;9.250;2022-12-01T04:08:17;3.70;1.00
2202;DHT22;1107;48.654;9.250;2022-12-01T04:10:44;3.70;1.00
2202;DHT22;1107;48.654;9.250;2022-12-01T04:13:12;3.70;1.00
2202;DHT22;1107;48.654;9.250;2022-12-01T04:15:47;3.70;99.90
2202;DHT22;1107;48.654;9.250;2022-12-01T04:18:14;3.60;99.90
2202;DHT22;1107;48.654;9.250;2022-12-01T04:20:43;3.70;99.90
2202;DHT22;1107;48.654;9.250;2022-12-01T04:23:10;3.70;99.90
2202;DHT22;1107;48.654;9.250;2022-12-01T04:25:58;3.60;99.90
2202;DHT22;1107;48.654;9.250;2022-12-01T04:28:26;3.60;74.00
2202;DHT22;1107;48.654;9.250;2022-12-01T04:30:53;3.70;55.90
2202;DHT22;1107;48.654;9.250;2022-12-01T04:33:20;3.60;99.90
2202;DHT22;1107;48.654;9.250;2022-12-01T04:35:56;3.60;99.90
2202;DHT22;1107;48.654;9.250;2022-12-01T04:38:23;3.60;99.90
2202;DHT22;1107;48.654;9.250;2022-12-01T04:40:50;3.60;99.90
2202;DHT22;1107;48.654;9.250;2022-12-01T04:43:17;3.60;99.90
2202;DHT22;1107;48.654;9.250;2022-12-01T04:45:44;3.60;99.90
2202;DHT22;1107;48.654;9.250;2022-12-01T04:48:11;3.60;99.90
2202;DHT22;1107;48.654;9.250;2022-12-01T04:50:39;3.60;1.00
2202;DHT22;1107;48.654;9.250;2022-12-01T04:53:07;3.60;1.00
2202;DHT22;1107;48.654;9.250;2022-12-01T04:55:35;3.50;99.90
2202;DHT22;1107;48.654;9.250;2022-12-01T04:58:03;3.60;99.90
2202;DHT22;1107;48.654;9.250;2022-12-01T05:00:30;3.60;1.00
2202;DHT22;1107;48.654;9.250;2022-12-01T05:02:57;3.60;1.00
2202;DHT22;1107;48.654;9.250;2022-12-01T05:05:24;3.70;1.00
2202;DHT22;1107;48.654;9.250;2022-12-01T05:07:52;3.70;1.00
2202;DHT22;1107;48.654;9.250;2022-12-01T05:10:20;3.70;1.00
2202;DHT22;1107;48.654;9.250;2022-12-01T05:12:47;3.70;1.00
2202;DHT22;1107;48.654;9.250;2022-12-01T05:15:14;3.70;99.90
2202;DHT22;1107;48.654;9.250;2022-12-01T05:17:41;3.80;99.90
2202;DHT22;1107;48.654;9.250;2022-12-01T05:20:09;3.80;73.00
2202;DHT22;1107;48.654;9.250;2022-12-01T05:22:58;3.80;1.00
2202;DHT22;1107;48.654;9.250;2022-12-01T05:25:34;3.80;1.00
2202;DHT22;1107;48.654;9.250;2022-12-01T05:28:02;3.80;1.00
2202;DHT22;1107;48.654;9.250;2022-12-01T05:30:29;3.90;1.00
2202;DHT22;1107;48.654;9.250;2022-12-01T05:32:56;3.80;1.00
2202;DHT22;1107;48.654;9.250;2022-12-01T05:35:23;3.90;1.00
2202;DHT22;1107;48.654;9.250;2022-12-01T05:37:50;3.90;1.00
2202;DHT22;1107;48.654;9.250;2022-12-01T05:40:16;3.90;1.00
2202;DHT22;1107;48.654;9.250;2022-12-01T05:42:45;3.90;1.00
2202;DHT22;1107;48.654;9.250;2022-12-01T05:45:12;3.90;22.20
2202;DHT22;1107;48.654;9.250;2022-12-01T05:47:39;3.80;99.90
2202;DHT22;1107;48.654;9.250;2022-12-01T05:50:06;3.80;99.90
2202;DHT22;1107;48.654;9.250;2022-12-01T05:52:33;3.90;1.00
2202;DHT22;1107;48.654;9.250;2022-12-01T05:55:00;3.90;1.00
2202;DHT22;1107;48.654;9.250;2022-12-01T05:57:27;3.90;99.90
2202;DHT22;1107;48.654;9.250;2022-12-01T05:59:56;3.90;99.90
2202;DHT22;1107;48.654;9.250;2022-12-01T06:02:23;3.90;99.90
2202;DHT22;1107;48.654;9.250;2022-12-01T06:04:51;3.90;1.00
2202;DHT22;1107;48.654;9.250;2022-12-01T06:07:21;3.70;99.90
2202;DHT22;1107;48.654;9.250;2022-12-01T06:09:50;3.90;1.00
2202;DHT22;1107;48.654;9.250;2022-12-01T06:12:17;3.80;1.00
2202;DHT22;1107;48.654;9.250;2022-12-01T06:14:44;3.80;1.00
2202;DHT22;1107;48.654;9.250;2022-12-01T06:17:12;3.80;1.00
2202;DHT22;1107;48.654;9.250;2022-12-01T06:19:39;3.80;1.00
2202;DHT22;1107;48.654;9.250;2022-12-01T06:22:07;3.80;1.00
2202;DHT22;1107;48.654;9.250;2022-12-01T06:24:34;3.80;1.00
2202;DHT22;1107;48.654;9.250;2022-12-01T06:27:01;3.70;1.00
2202;DHT22;1107;48.654;9.250;2022-12-01T06:29:28;3.70;1.00
2202;DHT22;1107;48.654;9.250;2022-12-01T06:31:55;3.70;1.00
2202;DHT22;1107;48.654;9.250;2022-12-01T06:34:24;3.60;1.00
2202;DHT22;1107;48.654;9.250;2022-12-01T06:36:50;3.70;1.00
2202;DHT22;1107;48.654;9.250;2022-12-01T06:39:17;3.60;1.00
2202;DHT22;1107;48.654;9.250;2022-12-01T06:41:44;3.60;99.90
2202;DHT22;1107;48.654;9.250;2022-12-01T06:44:12;3.60;99.90
2202;DHT22;1107;48.654;9.250;2022-12-01T06:46:39;3.60;1.00
2202;DHT22;1107;48.654;9.250;2022-12-01T06:49:09;3.70;1.00
2202;DHT22;1107;48.654;9.250;2022-12-01T06:51:37;3.70;1.00
2202;DHT22;1107;48.654;9.250;2022-12-01T06:54:04;3.70;99.90
2202;DHT22;1107;48.654;9.250;2022-12-01T06:56:31;3.70;99.90
2202;DHT22;1107;48.654;9.250;2022-12-01T06:58:58;3.80;99.90
2202;DHT22;1107;48.654;9.250;2022-12-01T07:01:25;3.80;99.90
2202;DHT22;1107;48.654;9.250;2022-12-01T07:03:52;3.80;99.90
2202;DHT22;1107;48.654;9.250;2022-12-01T07:06:19;3.80;99.90
2202;DHT22;1107;48.654;9.250;2022-12-01T07:08:47;3.80;99.90
2202;DHT22;1107;48.654;9.250;2022-12-01T07:11:14;3.80;99.90
2202;DHT22;1107;48.654;9.250;2022-12-01T07:13:42;3.80;99.90
2202;DHT22;1107;48.654;9.250;2022-12-01T07:16:10;3.80;1.00
2202;DHT22;1107;48.654;9.250;2022-12-01T07:18:37;3.80;99.90
2202;DHT22;1107;48.654;9.250;2022-12-01T07:21:05;3.80;99.90
2202;DHT22;1107;48.654;9.250;2022-12-01T07:23:33;3.70;99.90
2202;DHT22;1107;48.654;9.250;2022-12-01T07:26:02;3.70;99.90
2202;DHT22;1107;48.654;9.250;2022-12-01T07:28:29;3.70;1.00
2202;DHT22;1107;48.654;9.250;2022-12-01T07:31:00;3.70;1.00
2202;DHT22;1107;48.654;9.250;2022-12-01T07:33:27;3.80;1.00
2202;DHT22;1107;48.654;9.250;2022-12-01T07:35:54;3.80;1.00
2202;DHT22;1107;48.654;9.250;2022-12-01T07:38:21;3.80;1.00
2202;DHT22;1107;48.654;9.250;2022-12-01T07:40:48;3.80;99.90
2202;DHT22;1107;48.654;9.250;2022-12-01T07:43:16;3.80;99.90
2202;DHT22;1107;48.654;9.250;2022-12-01T07:45:43;3.80;99.90
2202;DHT22;1107;48.654;9.250;2022-12-01T07:48:10;3.90;99.90
2202;DHT22;1107;48.654;9.250;2022-12-01T07:50:37;3.90;99.90
2202;DHT22;1107;48.654;9.250;2022-12-01T07:53:04;3.90;99.90
2202;DHT22;1107;48.654;9.250;2022-12-01T07:55:31;3.90;99.90
2202;DHT22;1107;48.654;9.250;2022-12-01T07:57:58;3.90;99.90
2202;DHT22;1107;48.654;9.250;2022-12-01T08:00:26;3.90;99.90
2202;DHT22;1107;48.654;9.250;2022-12-01T08:02:53;3.90;99.90
2202;DHT22;1107;48.654;9.250;2022-12-01T08:05:20;3.80;99.90
2202;DHT22;1107;48.654;9.250;2022-12-01T08:07:47;3.80;99.90
2202;DHT22;1107;48.654;9.250;2022-12-01T08:10:14;3.80;99.90
2202;DHT22;1107;48.654;9.250;2022-12-01T08:12:40;3.80;99.90
2202;DHT22;1107;48.654;9.250;2022-12-01T08:15:08;3.90;1.00
2202;DHT22;1107;48.654;9.250;2022-12-01T08:17:36;3.90;99.90
2202;DHT22;1107;48.654;9.250;2022-12-01T08:20:04;3.90;1.00
2202;DHT22;1107;48.654;9.250;2022-12-01T08:22:31;4.00;1.00
2202;DHT22;1107;48.654;9.250;2022-12-01T08:24:58;3.90;99.90
2202;DHT22;1107;48.654;9.250;2022-12-01T08:27:25;4.00;99.90
2202;DHT22;1107;48.654;9.250;2022-12-01T08:29:52;3.90;99.90
2202;DHT22;1107;48.654;9.250;2022-12-01T08:32:19;3.90;99.90
2202;DHT22;1107;48.654;9.250;2022-12-01T08:34:47;3.90;99.90
2202;DHT22;1107;48.654;9.250;2022-12-01T08:37:14;3.90;99.90
2202;DHT22;1107;48.654;9.250;2022-12-01T08:39:41;3.90;99.90
2202;DHT22;1107;48.654;9.250;2022-12-01T08:42:08;3.90;99.90
2202;DHT22;1107;48.654;9.250;2022-12-01T08:44:35;3.80;99.90
2202;DHT22;1107;48.654;9.250;2022-12-01T08:47:02;3.80;1.00
2202;DHT22;1107;48.654;9.250;2022-12-01T08:49:29;3.90;1.00
2202;DHT22;1107;48.654;9.250;2022-12-01T08:51:57;3.80;1.00
2202;DHT22;1107;48.654;9.250;2022-12-01T08:54:24;3.80;1.00
2202;DHT22;1107;48.654;9.250;2022-12-01T08:56:51;3.90;1.00
2202;DHT22;1107;48.654;9.250;2022-12-01T08:59:17;3.90;1.00
2202;DHT22;1107;48.654;9.250;2022-12-01T09:01:44;3.90;1.00
2202;DHT22;1107;48.654;9.250;2022-12-01T09:04:22;4.00;99.90
2202;DHT22;1107;48.654;9.250;2022-12-01T09:06:49;4.00;99.90
2202;DHT22;1107;48.654;9.250;2022-12-01T09:09:18;4.00;99.90
2202;DHT22;1107;48.654;9.250;2022-12-01T09:11:46;4.00;99.90
2202;DHT22;1107;48.654;9.250;2022-12-01T09:14:14;4.00;99.90
2202;DHT22;1107;48.654;9.250;2022-12-01T09:16:41;4.10;99.90
2202;DHT22;1107;48.654;9.250;2022-12-01T09:19:09;4.10;99.90
2202;DHT22;1107;48.654;9.250;2022-12-01T09:21:36;4.10;1.00
2202;DHT22;1107;48.654;9.250;2022-12-01T09:24:03;4.10;1.00
2202;DHT22;1107;48.654;9.250;2022-12-01T09:26:32;4.10;1.00
2202;DHT22;1107;48.654;9.250;2022-12-01T09:29:00;4.10;99.90
2202;DHT22;1107;48.654;9.250;2022-12-01T09:31:27;4.10;1.00
2202;DHT22;1107;48.654;9.250;2022-12-01T09:33:54;4.10;99.90
2202;DHT22;1107;48.654;9.250;2022-12-01T09:36:21;4.20;1.00
2202;DHT22;1107;48.654;9.250;2022-12-01T09:38:48;4.20;99.90
2202;DHT22;1107;48.654;9.250;2022-12-01T09:41:16;4.20;99.90
2202;DHT22;1107;48.654;9.250;2022-12-01T09:43:46;4.20;99.90
2202;DHT22;1107;48.654;9.250;2022-12-01T09:46:14;4.10;1.00
2202;DHT22;1107;48.654;9.250;2022-12-01T09:48:43;4.30;1.00
2202;DHT22;1107;48.654;9.250;2022-12-01T09:51:12;4.20;1.00
2202;DHT22;1107;48.654;9.250;2022-12-01T09:53:39;4.20;1.00
2202;DHT22;1107;48.654;9.250;2022-12-01T09:56:09;4.20;1.00
2202;DHT22;1107;48.654;9.250;2022-12-01T09:58:43;4.20;1.00
2202;DHT22;1107;48.654;9.250;2022-12-01T10:01:12;4.20;1.00
2202;DHT22;1107;48.654;9.250;2022-12-01T10:03:41;4.20;1.00
2202;DHT22;1107;48.654;9.250;2022-12-01T10:06:13;4.20;1.00
2202;DHT22;1107;48.654;9.250;2022-12-01T10:08:46;4.20;1.00
2202;DHT22;1107;48.654;9.250;2022-12-01T10:11:19;4.20;1.00
2202;DHT22;1107;48.654;9.250;2022-12-01T10:13:49;4.20;1.00
2202;DHT22;1107;48.654;9.250;2022-12-01T10:16:21;4.20;1.00
2202;DHT22;1107;48.654;9.250;2022-12-01T10:18:51;4.20;1.00
2202;DHT22;1107;48.654;9.250;2022-12-01T10:21:26;4.20;1.00
2202;DHT22;1107;48.654;9.250;2022-12-01T10:24:11;4.30;1.00
2202;DHT22;1107;48.654;9.250;2022-12-01T10:26:43;4.30;1.00
2202;DHT22;1107;48.654;9.250;2022-12-01T10:29:15;4.40;1.00
2202;DHT22;1107;48.654;9.250;2022-12-01T10:31:51;4.40;1.00
2202;DHT22;1107;48.654;9.250;2022-12-01T10:34:20;4.50;1.00
2202;DHT22;1107;48.654;9.250;2022-12-01T10:36:47;4.50;1.00
2202;DHT22;1107;48.654;9.250;2022-12-01T10:39:15;4.50;1.00
2202;DHT22;1107;48.654;9.250;2022-12-01T10:41:44;4.60;1.00
2202;DHT22;1107;48.654;9.250;2022-12-01T10:44:11;4.60;1.00
2202;DHT22;1107;48.654;9.250;2022-12-01T10:46:39;4.60;1.00
2202;DHT22;1107;48.654;9.250;2022-12-01T10:49:09;4.60;1.00
2202;DHT22;1107;48.654;9.250;2022-12-01T10:51:46;4.60;99.90
2202;DHT22;1107;48.654;9.250;2022-12-01T10:54:14;4.50;99.90
2202;DHT22;1107;48.654;9.250;2022-12-01T10:56:41;4.50;1.00
2202;DHT22;1107;48.654;9.250;2022-12-01T10:59:15;4.50;1.00
2202;DHT22;1107;48.654;9.250;2022-12-01T11:01:45;4.50;1.00
2202;DHT22;1107;48.654;9.250;2022-12-01T11:04:30;4.50;1.00
2202;DHT22;1107;48.654;9.250;2022-12-01T11:06:58;4.50;1.00
2202;DHT22;1107;48.654;9.250;2022-12-01T11:09:26;4.50;1.00
2202;DHT22;1107;48.654;9.250;2022-12-01T11:11:54;4.50;1.00
2202;DHT22;1107;48.654;9.250;2022-12-01T11:14:21;4.50;99.90
2202;DHT22;1107;48.654;9.250;2022-12-01T11:16:49;4.50;99.90
2202;DHT22;1107;48.654;9.250;2022-12-01T11:19:25;4.50;99.90
2202;DHT22;1107;48.654;9.250;2022-12-01T11:21:53;4.50;99.90
2202;DHT22;1107;48.654;9.250;2022-12-01T11:24:26;4.50;99.90
2202;DHT22;1107;48.654;9.250;2022-12-01T11:26:53;4.50;99.90
2202;DHT22;1107;48.654;9.250;2022-12-01T11:29:24;4.50;99.90
2202;DHT22;1107;48.654;9.250;2022-12-01T11:31:53;4.50;99.90
2202;DHT22;1107;48.654;9.250;2022-12-01T11:34:20;4.60;99.90
2202;DHT22;1107;48.654;9.250;2022-12-01T11:36:50;4.50;99.90
2202;DHT22;1107;48.654;9.250;2022-12-01T11:39:20;4.60;99.90
2202;DHT22;1107;48.654;9.250;2022-12-01T11:41:48;4.60;99.90
2202;DHT22;1107;48.654;9.250;2022-12-01T11:44:16;4.60;99.90
2202;DHT22;1107;48.654;9.250;2022-12-01T11:46:43;4.70;1.00
2202;DHT22;1107;48.654;9.250;2022-12-01T11:49:14;4.60;99.90
2202;DHT22;1107;48.654;9.250;2022-12-01T11:51:42;4.60;99.90
2202;DHT22;1107;48.654;9.250;2022-12-01T11:54:14;4.60;99.90
2202;DHT22;1107;48.654;9.250;2022-12-01T11:56:42;4.60;99.90
2202;DHT22;1107;48.654;9.250;2022-12-01T11:59:10;4.50;77.00
2202;DHT22;1107;48.654;9.250;2022-12-01T12:01:39;4.50;99.90
2202;DHT22;1107;48.654;9.250;2022-12-01T12:04:15;4.60;15.70
2202;DHT22;1107;48.654;9.250;2022-12-01T12:06:44;4.60;1.00
2202;DHT22;1107;48.654;9.250;2022-12-01T12:09:22;4.60;1.00
2202;DHT22;1107;48.654;9.250;2022-12-01T12:11:52;4.40;1.00
2202;DHT22;1107;48.654;9.250;2022-12-01T12:14:26;4.60;1.00
2202;DHT22;1107;48.654;9.250;2022-12-01T12:17:00;4.70;1.00
2202;DHT22;1107;48.654;9.250;2022-12-01T12:19:36;4.70;1.00
2202;DHT22;1107;48.654;9.250;2022-12-01T12:22:12;4.80;99.90
2202;DHT22;1107;48.654;9.250;2022-12-01T12:24:47;4.80;1.00
2202;DHT22;1107;48.654;9.250;2022-12-01T12:27:20;4.80;99.90
2202;DHT22;1107;48.654;9.250;2022-12-01T12:29:55;4.90;1.00
2202;DHT22;1107;48.654;9.250;2022-12-01T12:35:14;5.10;99.90
2202;DHT22;1107;48.654;9.250;2022-12-01T12:37:44;5.10;1.00
2202;DHT22;1107;48.654;9.250;2022-12-01T12:40:19;5.10;1.00
2202;DHT22;1107;48.654;9.250;2022-12-01T12:42:51;5.10;1.00
2202;DHT22;1107;48.654;9.250;2022-12-01T12:45:22;5.20;99.90
2202;DHT22;1107;48.654;9.250;2022-12-01T12:47:55;5.20;99.90
2202;DHT22;1107;48.654;9.250;2022-12-01T12:50:26;5.30;99.90
2202;DHT22;1107;48.654;9.250;2022-12-01T12:52:54;5.20;1.00
2202;DHT22;1107;48.654;9.250;2022-12-01T12:55:25;5.20;99.90
2202;DHT22;1107;48.654;9.250;2022-12-01T12:57:54;5.10;1.00
2202;DHT22;1107;48.654;9.250;2022-12-01T13:00:23;5.10;1.00
2202;DHT22;1107;48.654;9.250;2022-12-01T13:02:51;5.20;1.00
2202;DHT22;1107;48.654;9.250;2022-12-01T13:05:22;5.10;99.90
2202;DHT22;1107;48.654;9.250;2022-12-01T13:07:52;5.10;99.90
2202;DHT22;1107;48.654;9.250;2022-12-01T13:10:22;5.10;99.90
2202;DHT22;1107;48.654;9.250;2022-12-01T13:12:54;5.10;1.00
2202;DHT22;1107;48.654;9.250;2022-12-01T13:15:22;4.80;99.90
2202;DHT22;1107;48.654;9.250;2022-12-01T13:17:50;5.00;68.20
2202;DHT22;1107;48.654;9.250;2022-12-01T13:20:19;4.90;1.00
2202;DHT22;1107;48.654;9.250;2022-12-01T13:22:46;4.90;1.00
2202;DHT22;1107;48.654;9.250;2022-12-01T13:25:14;4.90;1.00
2202;DHT22;1107;48.654;9.250;2022-12-01T13:27:42;5.00;99.90
2202;DHT22;1107;48.654;9.250;2022-12-01T13:30:17;5.00;1.00
2202;DHT22;1107;48.654;9.250;2022-12-01T13:32:44;5.00;1.00
2202;DHT22;1107;48.654;9.250;2022-12-01T13:35:19;5.00;1.00
2202;DHT22;1107;48.654;9.250;2022-12-01T13:37:47;5.00;1.00
2202;DHT22;1107;48.654;9.250;2022-12-01T13:40:19;5.00;99.90
2202;DHT22;1107;48.654;9.250;2022-12-01T13:42:51;5.10;1.00
2202;DHT22;1107;48.654;9.250;2022-12-01T13:45:21;5.00;99.90
2202;DHT22;1107;48.654;9.250;2022-12-01T13:47:49;5.00;99.90
2202;DHT22;1107;48.654;9.250;2022-12-01T13:53:08;5.00;1.00
2202;DHT22;1107;48.654;9.250;2022-12-01T13:55:37;5.00;99.90
2202;DHT22;1107;48.654;9.250;2022-12-01T13:58:23;4.90;1.00
2202;DHT22;1107;48.654;9.250;2022-12-01T14:00:51;4.90;99.90
2202;DHT22;1107;48.654;9.250;2022-12-01T14:06:19;4.90;1.00
2202;DHT22;1107;48.654;9.250;2022-12-01T14:08:50;4.90;1.00
2202;DHT22;1107;48.654;9.250;2022-12-01T14:11:19;4.90;1.00
2202;DHT22;1107;48.654;9.250;2022-12-01T14:13:49;4.90;21.50
2202;DHT22;1107;48.654;9.250;2022-12-01T14:16:18;4.90;13.20
2202;DHT22;1107;48.654;9.250;2022-12-01T14:18:48;4.90;1.00
2202;DHT22;1107;48.654;9.250;2022-12-01T14:21:15;4.80;1.00
2202;DHT22;1107;48.654;9.250;2022-12-01T14:23:57;4.90;1.00
2202;DHT22;1107;48.654;9.250;2022-12-01T14:26:25;4.90;1.00
2202;DHT22;1107;48.654;9.250;2022-12-01T14:34:30;4.80;1.00
2202;DHT22;1107;48.654;9.250;2022-12-01T14:37:01;4.80;99.90
2202;DHT22;1107;48.654;9.250;2022-12-01T14:39:31;4.80;99.90
2202;DHT22;1107;48.654;9.250;2022-12-01T14:41:59;4.80;99.90
2202;DHT22;1107;48.654;9.250;2022-12-01T14:44:28;4.80;99.90
2202;DHT22;1107;48.654;9.250;2022-12-01T14:46:57;4.80;99.90
2202;DHT22;1107;48.654;9.250;2022-12-01T14:49:25;4.80;1.00
2202;DHT22;1107;48.654;9.250;2022-12-01T14:51:57;4.70;1.00
2202;DHT22;1107;48.654;9.250;2022-12-01T14:54:25;4.70;1.00
2202;DHT22;1107;48.654;9.250;2022-12-01T14:56:54;4.70;99.90
2202;DHT22;1107;48.654;9.250;2022-12-01T14:59:22;4.70;99.90
2202;DHT22;1107;48.654;9.250;2022-12-01T15:01:51;4.70;99.90
2202;DHT22;1107;48.654;9.250;2022-12-01T15:04:19;4.70;99.90
2202;DHT22;1107;48.654;9.250;2022-12-01T15:06:51;4.70;99.90
2202;DHT22;1107;48.654;9.250;2022-12-01T15:09:20;4.70;99.90
2202;DHT22;1107;48.654;9.250;2022-12-01T15:11:51;4.80;99.90
2202;DHT22;1107;48.654;9.250;2022-12-01T15:14:20;4.70;99.90
2202;DHT22;1107;48.654;9.250;2022-12-01T15:16:47;4.70;99.90
2202;DHT22;1107;48.654;9.250;2022-12-01T15:19:21;4.60;93.50
2202;DHT22;1107;48.654;9.250;2022-12-01T15:21:48;4.60;99.90
2202;DHT22;1107;48.654;9.250;2022-12-01T15:24:21;4.70;99.90
2202;DHT22;1107;48.654;9.250;2022-12-01T15:26:48;4.70;99.90
2202;DHT22;1107;48.654;9.250;2022-12-01T15:29:16;4.70;99.90
2202;DHT22;1107;48.654;9.250;2022-12-01T15:31:45;4.70;93.00
2202;DHT22;1107;48.654;9.250;2022-12-01T15:34:13;4.70;3.20
2202;DHT22;1107;48.654;9.250;2022-12-01T15:36:40;4.70;1.00
2202;DHT22;1107;48.654;9.250;2022-12-01T15:39:10;4.70;99.90
2202;DHT22;1107;48.654;9.250;2022-12-01T15:41:41;4.60;99.90
2202;DHT22;1107;48.654;9.250;2022-12-01T15:44:16;4.60;99.90
2202;DHT22;1107;48.654;9.250;2022-12-01T15:46:44;4.60;99.90
2202;DHT22;1107;48.654;9.250;2022-12-01T15:49:15;4.70;99.90
2202;DHT22;1107;48.654;9.250;2022-12-01T15:51:42;4.70;99.90
2202;DHT22;1107;48.654;9.250;2022-12-01T15:54:14;4.60;99.90
2202;DHT22;1107;48.654;9.250;2022-12-01T15:56:44;4.60;99.90
2202;DHT22;1107;48.654;9.250;2022-12-01T15:59:15;4.60;99.90
2202;DHT22;1107;48.654;9.250;2022-12-01T16:01:45;4.60;99.90
2202;DHT22;1107;48.654;9.250;2022-12-01T16:04:14;4.60;99.90
2202;DHT22;1107;48.654;9.250;2022-12-01T16:06:49;4.60;99.90
2202;DHT22;1107;48.654;9.250;2022-12-01T16:09:18;4.60;99.90
2202;DHT22;1107;48.654;9.250;2022-12-01T16:14:48;4.60;99.90
2202;DHT22;1107;48.654;9.250;2022-12-01T16:17:15;4.60;1.00
2202;DHT22;1107;48.654;9.250;2022-12-01T16:19:42;4.60;99.90
2202;DHT22;1107;48.654;9.250;2022-12-01T16:22:12;4.70;1.00
2202;DHT22;1107;48.654;9.250;2022-12-01T16:24:42;4.70;1.00
2202;DHT22;1107;48.654;9.250;2022-12-01T16:27:15;4.70;1.00
2202;DHT22;1107;48.654;9.250;2022-12-01T16:29:44;4.70;1.00
2202;DHT22;1107;48.654;9.250;2022-12-01T16:32:16;4.70;1.00
2202;DHT22;1107;48.654;9.250;2022-12-01T16:34:43;4.60;1.00
2202;DHT22;1107;48.654;9.250;2022-12-01T16:37:11;4.60;1.00
2202;DHT22;1107;48.654;9.250;2022-12-01T16:39:38;4.60;1.00
2202;DHT22;1107;48.654;9.250;2022-12-01T16:42:05;4.60;1.00
2202;DHT22;1107;48.654;9.250;2022-12-01T16:44:32;4.60;1.00
2202;DHT22;1107;48.654;9.250;2022-12-01T16:46:58;4.60;1.00
2202;DHT22;1107;48.654;9.250;2022-12-01T16:49:26;4.60;1.00
2202;DHT22;1107;48.654;9.250;2022-12-01T16:51:53;4.60;1.00
2202;DHT22;1107;48.654;9.250;2022-12-01T16:54:20;4.60;1.00
2202;DHT22;1107;48.654;9.250;2022-12-01T16:56:47;4.50;1.00
2202;DHT22;1107;48.654;9.250;2022-12-01T16:59:14;4.50;1.00
2202;DHT22;1107;48.654;9.250;2022-12-01T17:01:40;4.50;1.00